Nashville, Tennessee
Traffic Map
Current Weather Conditions
Nashville, Tennessee
Few Clouds
Few Clouds
21°
Feels Like: 21°
Wind Chill: 21° Ceiling: Unl
Heat Index: 21° Visibility: 10mi
Dew Point: 19° Wind: 6mph
Humidity: 93% Direction: 180° (S)
Pressure: 30.11in Gusts: 0mph
Raw Report DataKBNA 270253Z 18005KT 10SM FEW250 21/19 A3011 RMK AO2 SLP189 T02060194 53015
Traffic Incident Summary
Active as of:
Severity:
Category:
InformationThere was an issue retrieving the traffic information for this location. Please try a different location or try again shortly.
Advertisements
Track Severe Weather on mobile